• Join FlightAware (Why Join?)
  • Login
  • US Flag 
06:42AM EDT


 

Airport Tracker/Info


-or-


 

Live Flight TrackerFlight Track Log ✈ AAL832 ✈ 28-Apr-2013 ✈ KORD - KMIA

Flight Track Log - Related Links

Times and Time Zones

All times are in EDT time to prevent confusion due to time zone crossing. See the AAL832 flight status page for this flight to view local times or setup timezone preferences in your user account.

Time Position Orientation Groundspeed Altitude Reporting Facility
EDT Latitude Longitude Course Direction KTS MPH feet Rate Location/Type
05:51PM 41.9167 -87.9167 163° South 194 223 3,700  Level Chicago TRACON
05:52PM 41.8667 -87.9167 180° South 253 291 5,400 2,700 Climbing Chicago TRACON
05:53PM 41.6572 -87.7173 155° Southeast  Level Estimated
05:53PM 41.7881 -87.9000 171° South 280 322 8,700  Level Chicago Center
05:54PM 41.5490 -87.6545 153° Southeast  Level Estimated
05:54PM 41.7200 -87.8361 145° Southeast 297 342 11,900  Level Chicago Center
05:55PM 41.4408 -87.5920 166° South  Level Estimated
05:55PM 41.6461 -87.7711 147° Southeast 313 360 14,700  Level Chicago Center
05:56PM 41.3325 -87.5298 180° South  Level Estimated
05:56PM 41.5636 -87.6981 146° Southeast 349 402 16,600  Level Chicago Center
05:57PM 41.2269 -87.4692 163° South  Level Estimated
05:57PM 41.4706 -87.6119 145° Southeast 397 457 19,000  Level Chicago Center
05:58PM 41.3600 -87.5614 161° South 425 489 21,500 2,220 Climbing Chicago Center
05:59PM 41.2394 -87.5406 173° South 431 496 23,700 1,980 Climbing Chicago Center
06:00PM 41.0889 -87.5036 170° South 455 524 25,600 1,860 Climbing Chicago Center
06:01PM 40.9631 -87.4689 168° South 462 532 27,600 1,740 Climbing Chicago Center
06:03PM 40.8333 -87.4342 169° South 472 543 29,200 1,440 Climbing Chicago Center
06:04PM 40.6997 -87.3997 169° South 486 559 30,700 1,680 Climbing Chicago Center
06:05PM 40.5653 -87.3636 168° South 492 566 32,800 2,160 Climbing Chicago Center
06:06PM 40.4189 -87.3197 167° South 483 556 35,200 1,980 Climbing Chicago Center
06:07PM 40.2950 -87.2614 160° South 473 544 37,000 1,440 Climbing Chicago Center
06:08PM 40.1744 -87.2047 160° South 462 532 38,200 960 Climbing Chicago Center
06:09PM 40.0542 -87.1467 160° South 459 528 39,000 420 Climbing Chicago Center
06:10PM 39.9353 -87.0753 155° Southeast 463 533 39,000  Level Indianapolis Center
06:11PM 39.8292 -86.9839 147° Southeast 457 526 39,000  Level Indianapolis Center
06:12PM 39.7231 -86.8947 147° Southeast 454 522 39,000  Level Indianapolis Center
06:13PM 39.6178 -86.8064 147° Southeast 452 520 39,000  Level Indianapolis Center
06:14PM 39.5117 -86.7183 147° Southeast 453 521 39,000  Level Indianapolis Center
06:15PM 39.3872 -86.6158 148° Southeast 455 524 39,000  Level Indianapolis Center
06:16PM 39.2808 -86.5275 147° Southeast 455 524 39,000  Level Indianapolis Center
06:17PM 39.1739 -86.4394 147° Southeast 455 524 39,000  Level Indianapolis Center
06:18PM 39.0653 -86.3511 148° Southeast 459 528 39,000  Level Indianapolis Center
06:19PM 38.9575 -86.2631 148° Southeast 458 527 39,000  Level Indianapolis Center
06:20PM 38.8331 -86.1606 147° Southeast 461 531 39,000  Level Indianapolis Center
06:21PM 38.7233 -86.0719 148° Southeast 462 532 39,000  Level Indianapolis Center
06:22PM 38.6139 -85.9825 147° Southeast 463 533 39,000  Level Indianapolis Center
06:23PM 38.5042 -85.8947 148° Southeast 461 531 39,000  Level Indianapolis Center
06:24PM 38.3944 -85.8067 148° Southeast 461 531 39,000  Level Indianapolis Center
06:25PM 38.2864 -85.7200 148° Southeast 457 526 39,000  Level Indianapolis Center
06:26PM 38.1775 -85.6347 148° Southeast 456 525 39,000  Level Indianapolis Center
06:27PM 38.0706 -85.5481 147° Southeast 453 521 39,000  Level Indianapolis Center
06:28PM 37.9403 -85.4475 149° Southeast 453 521 39,000  Level Indianapolis Center
06:29PM 37.8319 -85.3631 148° Southeast 453 521 39,000  Level Indianapolis Center
06:30PM 37.7339 -85.2853 148° Southeast 451 519 39,000  Level Indianapolis Center
06:31PM 37.6081 -85.1878 148° Southeast 456 525 39,000  Level Indianapolis Center
06:32PM 37.5006 -85.1050 149° Southeast 452 520 39,000  Level Indianapolis Center
06:33PM 37.3931 -85.0211 148° Southeast 454 522 39,000  Level Indianapolis Center
06:34PM 37.2850 -84.9381 149° Southeast 452 520 39,000  Level Indianapolis Center
06:35PM 37.1778 -84.8558 149° Southeast 453 521 39,000  Level Indianapolis Center
06:36PM 37.0522 -84.7594 148° Southeast 453 521 39,000  Level Indianapolis Center
06:38PM 36.9436 -84.6753 148° Southeast 454 522 39,000  Level Indianapolis Center
06:39PM 36.8353 -84.5919 148° Southeast 455 524 39,000  Level Indianapolis Center
06:40PM 36.7278 -84.5114 149° Southeast 451 519 39,000  Level Indianapolis Center
06:41PM 36.6217 -84.4306 149° Southeast 452 520 39,000  Level Indianapolis Center
06:42PM 36.4950 -84.3344 149° Southeast 456 525 39,000  Level Indianapolis Center
06:43PM 36.4019 -84.2644 149° Southeast 454 522 39,000  Level Indianapolis Center
06:44PM 36.2686 -84.1658 149° Southeast 459 528 39,000  Level Indianapolis Center
06:45PM 36.1592 -84.0847 149° Southeast 457 526 39,000  Level Indianapolis Center
06:46PM 36.0519 -84.0081 150° Southeast 452 520 39,000  Level Atlanta Center
06:47PM 35.9414 -83.9258 149° Southeast 452 520 39,000  Level Atlanta Center
06:48PM 35.8369 -83.8442 148° Southeast 452 520 39,000  Level Atlanta Center
06:49PM 35.7306 -83.7547 146° Southeast 452 520 39,000  Level Atlanta Center
06:50PM 35.6217 -83.6708 148° Southeast 457 526 39,000  Level Atlanta Center
06:51PM 35.5172 -83.5819 145° Southeast 462 532 39,000  Level Atlanta Center
06:52PM 35.4019 -83.4908 147° Southeast 462 532 39,000  Level Atlanta Center
06:53PM 35.2911 -83.4025 147° Southeast 462 532 39,000  Level Atlanta Center
06:54PM 35.1819 -83.3197 148° Southeast 462 532 39,000  Level Atlanta Center
06:55PM 35.0792 -83.2317 145° Southeast 462 532 39,000  Level Atlanta Center
06:56PM 34.9806 -83.1542 147° Southeast 462 532 39,000  Level Atlanta Center
06:57PM 34.8736 -83.0667 146° Southeast 462 532 39,000  Level Atlanta Center
06:58PM 34.7664 -82.9844 148° Southeast 464 534 39,000  Level Atlanta Center
06:59PM 34.6633 -82.9022 147° Southeast 454 522 39,000  Level Atlanta Center
07:00PM 34.5414 -82.8081 148° Southeast 460 529 39,000  Level Atlanta Center
07:01PM 34.4425 -82.7289 147° Southeast 450 518 39,000 180 Level Atlanta Center
07:02PM 34.3289 -82.6403 147° Southeast 465 535 39,400 480 Climbing Atlanta Center
07:03PM 34.2361 -82.5664 147° Southeast 459 528 40,000 300 Climbing Atlanta Center
07:04PM 34.1161 -82.4731 147° Southeast 464 534 40,000  Level Atlanta Center
07:05PM 34.0025 -82.4050 154° Southeast 458 527 40,000  Level Atlanta Center
07:06PM 33.8853 -82.3697 166° South 446 513 40,000  Level Atlanta Center
07:07PM 33.7658 -82.3347 166° South 440 506 40,000  Level Atlanta Center
07:08PM 33.6608 -82.2992 164° South 440 506 40,000  Level Atlanta Center
07:09PM 33.5289 -82.2619 167° South 439 505 40,000  Level Atlanta Center
07:10PM 33.4094 -82.2322 168° South 439 505 40,000  Level Atlanta Center
07:11PM 33.2942 -82.1997 167° South 434 499 40,000  Level Atlanta Center
07:12PM 33.1747 -82.1675 167° South 434 499 40,000  Level Atlanta Center
07:13PM 33.0553 -82.1331 166° South 434 499 40,000  Level Atlanta Center
07:14PM 32.9336 -82.1008 167° South 434 499 40,000  Level Atlanta Center
07:16PM 32.6958 -82.0336 167° South 456 525 40,000  Level Jacksonville Center
07:17PM 32.5808 -82.0025 167° South 456 525 40,000  Level Jacksonville Center
07:18PM 32.4556 -81.9669 167° South 449 517 40,000  Level Jacksonville Center
07:19PM 32.3467 -81.9361 167° South 449 517 40,000  Level Jacksonville Center
07:20PM 32.2086 -81.8981 167° South 454 522 40,000  Level Jacksonville Center
07:21PM 32.0850 -81.8653 167° South 448 516 40,000  Level Jacksonville Center
07:22PM 31.9594 -81.8322 167° South 459 528 40,000  Level Jacksonville Center
07:23PM 31.8381 -81.7969 166° South 454 522 40,000  Level Jacksonville Center
07:24PM 31.7253 -81.7689 168° South 454 522 40,000  Level Jacksonville Center
07:25PM 31.5892 -81.7317 167° South 448 516 40,000  Level Jacksonville Center
07:26PM 31.4636 -81.6967 167° South 448 516 40,000  Level Jacksonville Center
07:27PM 31.3400 -81.6642 167° South 454 522 40,000  Level Jacksonville Center
07:28PM 31.2292 -81.6342 167° South 454 522 40,000  Level Jacksonville Center
07:29PM 31.1056 -81.5994 166° South 454 522 40,000  Level Jacksonville Center
07:30PM 30.9842 -81.5694 168° South 449 517 40,000  Level Jacksonville Center
07:31PM 30.8606 -81.5325 166° South 449 517 40,000  Level Jacksonville Center
07:32PM 30.7369 -81.5006 167° South 449 517 40,000  Level Jacksonville Center
07:33PM 30.6136 -81.4661 166° South 449 517 40,000  Level Jacksonville Center
07:34PM 30.4961 -81.4317 166° South 449 517 40,000 -180 Level Jacksonville Center
07:35PM 30.3767 -81.3997 167° South 449 517 39,700 -780 Descending Jacksonville Center
07:36PM 30.2572 -81.3608 164° South 449 517 38,500 -900 Descending Jacksonville Center
07:37PM 30.1400 -81.3217 164° South 444 511 38,000 -300 Descending Jacksonville Center
07:38PM 30.0119 -81.2758 163° South 444 511 38,000  Level Jacksonville Center
07:39PM 29.8947 -81.2369 164° South 438 504 38,000  Level Jacksonville Center
07:40PM 29.7772 -81.1983 164° South 438 504 38,000  Level Jacksonville Center
07:41PM 29.6578 -81.1600 164° South 438 504 38,000  Level Jacksonville Center
07:42PM 29.5381 -81.1167 163° South 438 504 38,000  Level Jacksonville Center
07:43PM 29.4247 -81.0758 163° South 438 504 38,000  Level Jacksonville Center
07:44PM 29.3053 -81.0328 163° South 438 504 38,000  Level Jacksonville Center
07:45PM 29.1878 -80.9969 165° South 438 504 38,000  Level Jacksonville Center
07:47PM 28.9008 -80.9033 164° South 448 516 38,000  Level Miami Center
07:48PM 28.7789 -80.8633 164° South 448 516 38,000  Level Miami Center
07:49PM 28.6633 -80.8236 163° South 448 516 38,000  Level Miami Center
07:50PM 28.5414 -80.7814 163° South 453 521 38,000  Level Miami Center
07:51PM 28.4233 -80.7419 164° South 453 521 38,000  Level Miami Center
07:52PM 28.3097 -80.7028 163° South 458 527 38,000  Level Miami Center
07:53PM 28.1917 -80.6656 164° South 452 520 38,000 -600 Level Miami Center
07:54PM 28.0656 -80.6239 164° South 452 520 36,900 -1,560 Descending Miami Center
07:55PM 27.9414 -80.5775 162° South 458 527 34,900 -2,460 Descending Miami Center
07:56PM 27.8153 -80.5356 164° South 464 534 32,000 -3,000 Descending Miami Center
07:57PM 27.6889 -80.4942 164° South 474 545 28,900 -2,760 Descending Miami Center
07:58PM 27.5669 -80.4458 161° South 474 545 26,500 -2,400 Descending Miami Center
07:59PM 27.4492 -80.3975 160° South 469 540 24,100 -1,260 Descending Miami Center
08:00PM 27.3292 -80.3519 161° South 458 527 24,000 -60 Descending Miami Center
08:01PM 27.2094 -80.3017 160° South 458 527 24,000  Level Miami Center
08:02PM 27.0914 -80.2536 160° South 458 527 24,000 -780 Level Miami Center
08:03PM 26.9756 -80.2036 159° South 458 527 22,500 -2,160 Descending Miami Center
08:04PM 26.8536 -80.1561 161° South 441 507 19,700 -2,760 Descending Miami Center
08:05PM 26.7439 -80.1133 161° South 425 489 17,000 -2,700 Descending Miami Center
08:06PM 26.6506 -80.0828 164° South 413 475 14,300 -2,400 Descending Miami Center
08:07PM 26.5736 -80.0692 171° South 355 409 13,100 -1,320 Descending Miami Center
08:07PM 26.5444 -80.0639 171° South 382 440 13,000 -120 Descending Miami Center
08:08PM 26.4653 -80.0500 171° South 336 387 13,000 -900 Level Miami Center
08:09PM 26.3592 -80.0333 172° South 316 364 11,200 -1,500 Descending Miami Center
08:10PM 26.2906 -80.0197 170° South 315 362 10,000 -660 Descending Miami Center
08:11PM 26.2047 -80.0292 186° South 310 357 10,000  Level Miami Center
08:12PM 26.1164 -80.0522 193° South 315 362 10,000 -300 Level Miami Center
08:13PM 26.0367 -80.0733 193° South 310 357 9,500 -960 Descending Miami Center
08:14PM 25.9650 -80.1014 199° South 298 343 8,100 -780 Descending Miami Center
08:15PM 25.9342 -80.1767 246° West 255 293 8,000 -60 Descending Miami Center
08:16PM 25.9300 -80.2597 267° West 255 293 8,000 -660 Level Miami Center
08:17PM 25.9250 -80.3011 262° West 225 259 7,100 -2,040 Descending Miami Center
08:17PM 25.9258 -80.3497 271° West 232 267 5,700 -1,860 Descending Miami Center
08:18PM 25.9344 -80.4308 277° West 235 270 3,700 -1,800 Descending Miami Center